sensor_id;sensor_type;location;lat;lon;timestamp;P1;durP1;ratioP1;P2;durP2;ratioP2
5553;SDS011;2800;49.528;8.666;2023-04-25T00:01:37;10.40;;;8.27;;
5553;SDS011;2800;49.528;8.666;2023-04-25T00:04:03;10.53;;;7.97;;
5553;SDS011;2800;49.528;8.666;2023-04-25T00:06:30;10.20;;;7.97;;
5553;SDS011;2800;49.528;8.666;2023-04-25T00:08:57;9.90;;;7.77;;
5553;SDS011;2800;49.528;8.666;2023-04-25T00:11:22;10.20;;;8.10;;
5553;SDS011;2800;49.528;8.666;2023-04-25T00:13:48;11.03;;;7.90;;
5553;SDS011;2800;49.528;8.666;2023-04-25T00:16:15;10.50;;;7.83;;
5553;SDS011;2800;49.528;8.666;2023-04-25T00:18:41;10.73;;;8.10;;
5553;SDS011;2800;49.528;8.666;2023-04-25T00:21:07;9.17;;;7.37;;
5553;SDS011;2800;49.528;8.666;2023-04-25T00:23:33;12.00;;;8.00;;
5553;SDS011;2800;49.528;8.666;2023-04-25T00:26:01;11.47;;;8.93;;
5553;SDS011;2800;49.528;8.666;2023-04-25T00:28:27;12.30;;;9.30;;
5553;SDS011;2800;49.528;8.666;2023-04-25T00:30:52;10.53;;;7.97;;
5553;SDS011;2800;49.528;8.666;2023-04-25T00:33:18;11.33;;;8.63;;
5553;SDS011;2800;49.528;8.666;2023-04-25T00:35:43;10.93;;;8.53;;
5553;SDS011;2800;49.528;8.666;2023-04-25T00:38:09;12.10;;;9.33;;
5553;SDS011;2800;49.528;8.666;2023-04-25T00:40:34;14.00;;;9.37;;
5553;SDS011;2800;49.528;8.666;2023-04-25T00:43:00;12.77;;;10.63;;
5553;SDS011;2800;49.528;8.666;2023-04-25T00:45:29;12.03;;;10.30;;
5553;SDS011;2800;49.528;8.666;2023-04-25T00:47:55;13.47;;;10.73;;
5553;SDS011;2800;49.528;8.666;2023-04-25T00:50:21;15.30;;;11.47;;
5553;SDS011;2800;49.528;8.666;2023-04-25T00:52:47;15.30;;;11.97;;
5553;SDS011;2800;49.528;8.666;2023-04-25T00:55:12;15.70;;;10.73;;
5553;SDS011;2800;49.528;8.666;2023-04-25T00:57:38;13.40;;;10.27;;
5553;SDS011;2800;49.528;8.666;2023-04-25T01:00:05;13.57;;;10.57;;
5553;SDS011;2800;49.528;8.666;2023-04-25T01:02:32;12.50;;;10.03;;
5553;SDS011;2800;49.528;8.666;2023-04-25T01:04:58;14.50;;;11.63;;
5553;SDS011;2800;49.528;8.666;2023-04-25T01:07:24;13.00;;;11.10;;
5553;SDS011;2800;49.528;8.666;2023-04-25T01:09:51;15.17;;;11.00;;
5553;SDS011;2800;49.528;8.666;2023-04-25T01:12:17;13.00;;;11.37;;
5553;SDS011;2800;49.528;8.666;2023-04-25T01:14:43;11.80;;;9.90;;
5553;SDS011;2800;49.528;8.666;2023-04-25T01:17:09;12.17;;;10.67;;
5553;SDS011;2800;49.528;8.666;2023-04-25T01:19:35;13.23;;;10.30;;
5553;SDS011;2800;49.528;8.666;2023-04-25T01:22:00;11.67;;;9.87;;
5553;SDS011;2800;49.528;8.666;2023-04-25T01:24:26;11.47;;;9.53;;
5553;SDS011;2800;49.528;8.666;2023-04-25T01:26:52;11.43;;;9.57;;
5553;SDS011;2800;49.528;8.666;2023-04-25T01:29:21;12.87;;;9.63;;
5553;SDS011;2800;49.528;8.666;2023-04-25T01:31:48;13.60;;;10.70;;
5553;SDS011;2800;49.528;8.666;2023-04-25T01:34:14;15.90;;;11.77;;
5553;SDS011;2800;49.528;8.666;2023-04-25T01:36:40;13.00;;;11.17;;
5553;SDS011;2800;49.528;8.666;2023-04-25T01:39:06;12.53;;;10.97;;
5553;SDS011;2800;49.528;8.666;2023-04-25T01:41:32;15.20;;;11.30;;
5553;SDS011;2800;49.528;8.666;2023-04-25T01:43:59;15.97;;;12.27;;
5553;SDS011;2800;49.528;8.666;2023-04-25T01:46:25;12.37;;;10.87;;
5553;SDS011;2800;49.528;8.666;2023-04-25T01:48:51;13.30;;;10.80;;
5553;SDS011;2800;49.528;8.666;2023-04-25T01:51:16;15.90;;;12.70;;
5553;SDS011;2800;49.528;8.666;2023-04-25T01:53:42;14.80;;;12.57;;
5553;SDS011;2800;49.528;8.666;2023-04-25T01:56:08;14.30;;;11.57;;
5553;SDS011;2800;49.528;8.666;2023-04-25T01:58:33;12.50;;;10.83;;
5553;SDS011;2800;49.528;8.666;2023-04-25T02:00:59;14.20;;;12.10;;
5553;SDS011;2800;49.528;8.666;2023-04-25T02:03:25;13.23;;;11.33;;
5553;SDS011;2800;49.528;8.666;2023-04-25T02:05:50;13.87;;;11.53;;
5553;SDS011;2800;49.528;8.666;2023-04-25T02:08:16;12.80;;;11.47;;
5553;SDS011;2800;49.528;8.666;2023-04-25T02:10:43;15.67;;;12.67;;
5553;SDS011;2800;49.528;8.666;2023-04-25T02:13:08;16.53;;;11.60;;
5553;SDS011;2800;49.528;8.666;2023-04-25T02:15:34;15.50;;;11.97;;
5553;SDS011;2800;49.528;8.666;2023-04-25T02:18:00;15.60;;;13.40;;
5553;SDS011;2800;49.528;8.666;2023-04-25T02:20:26;15.37;;;12.30;;
5553;SDS011;2800;49.528;8.666;2023-04-25T02:22:52;14.80;;;12.93;;
5553;SDS011;2800;49.528;8.666;2023-04-25T02:25:18;18.37;;;13.90;;
5553;SDS011;2800;49.528;8.666;2023-04-25T02:27:45;14.90;;;12.70;;
5553;SDS011;2800;49.528;8.666;2023-04-25T02:30:11;19.37;;;14.90;;
5553;SDS011;2800;49.528;8.666;2023-04-25T02:32:37;16.63;;;13.63;;
5553;SDS011;2800;49.528;8.666;2023-04-25T02:35:04;16.27;;;14.53;;
5553;SDS011;2800;49.528;8.666;2023-04-25T02:37:30;17.60;;;14.53;;
5553;SDS011;2800;49.528;8.666;2023-04-25T02:39:58;17.43;;;14.77;;
5553;SDS011;2800;49.528;8.666;2023-04-25T02:42:23;18.30;;;14.50;;
5553;SDS011;2800;49.528;8.666;2023-04-25T02:44:49;19.63;;;15.93;;
5553;SDS011;2800;49.528;8.666;2023-04-25T02:47:15;18.77;;;15.53;;
5553;SDS011;2800;49.528;8.666;2023-04-25T02:49:40;17.53;;;14.93;;
5553;SDS011;2800;49.528;8.666;2023-04-25T02:52:06;18.93;;;15.87;;
5553;SDS011;2800;49.528;8.666;2023-04-25T02:54:31;21.70;;;15.60;;
5553;SDS011;2800;49.528;8.666;2023-04-25T02:56:57;17.70;;;15.67;;
5553;SDS011;2800;49.528;8.666;2023-04-25T02:59:22;18.73;;;16.27;;
5553;SDS011;2800;49.528;8.666;2023-04-25T03:01:48;18.27;;;15.70;;
5553;SDS011;2800;49.528;8.666;2023-04-25T03:04:13;18.30;;;15.43;;
5553;SDS011;2800;49.528;8.666;2023-04-25T03:06:39;17.23;;;15.30;;
5553;SDS011;2800;49.528;8.666;2023-04-25T03:09:04;18.57;;;15.20;;
5553;SDS011;2800;49.528;8.666;2023-04-25T03:11:30;19.00;;;16.83;;
5553;SDS011;2800;49.528;8.666;2023-04-25T03:13:55;17.97;;;16.07;;
5553;SDS011;2800;49.528;8.666;2023-04-25T03:16:21;19.53;;;17.43;;
5553;SDS011;2800;49.528;8.666;2023-04-25T03:18:47;20.83;;;17.10;;
5553;SDS011;2800;49.528;8.666;2023-04-25T03:21:14;23.03;;;17.10;;
5553;SDS011;2800;49.528;8.666;2023-04-25T03:23:40;21.20;;;17.50;;
5553;SDS011;2800;49.528;8.666;2023-04-25T03:26:05;23.23;;;19.50;;
5553;SDS011;2800;49.528;8.666;2023-04-25T03:28:32;19.37;;;17.20;;
5553;SDS011;2800;49.528;8.666;2023-04-25T03:30:57;19.30;;;17.20;;
5553;SDS011;2800;49.528;8.666;2023-04-25T03:33:23;19.87;;;17.50;;
5553;SDS011;2800;49.528;8.666;2023-04-25T03:35:48;20.93;;;17.93;;
5553;SDS011;2800;49.528;8.666;2023-04-25T03:38:14;20.73;;;18.20;;
5553;SDS011;2800;49.528;8.666;2023-04-25T03:40:40;19.63;;;17.23;;
5553;SDS011;2800;49.528;8.666;2023-04-25T03:43:06;22.33;;;20.00;;
5553;SDS011;2800;49.528;8.666;2023-04-25T03:45:31;21.37;;;19.07;;
5553;SDS011;2800;49.528;8.666;2023-04-25T03:47:57;22.17;;;19.50;;
5553;SDS011;2800;49.528;8.666;2023-04-25T03:50:23;21.70;;;19.20;;
5553;SDS011;2800;49.528;8.666;2023-04-25T03:52:48;22.63;;;19.47;;
5553;SDS011;2800;49.528;8.666;2023-04-25T03:55:14;23.57;;;20.67;;
5553;SDS011;2800;49.528;8.666;2023-04-25T03:57:40;23.60;;;21.10;;
5553;SDS011;2800;49.528;8.666;2023-04-25T04:00:06;24.97;;;20.03;;
5553;SDS011;2800;49.528;8.666;2023-04-25T04:02:32;24.13;;;19.73;;
5553;SDS011;2800;49.528;8.666;2023-04-25T04:04:59;24.30;;;21.43;;
5553;SDS011;2800;49.528;8.666;2023-04-25T04:07:25;25.70;;;20.63;;
5553;SDS011;2800;49.528;8.666;2023-04-25T04:09:51;25.67;;;22.13;;
5553;SDS011;2800;49.528;8.666;2023-04-25T04:12:16;26.07;;;21.77;;
5553;SDS011;2800;49.528;8.666;2023-04-25T04:14:42;25.53;;;21.17;;
5553;SDS011;2800;49.528;8.666;2023-04-25T04:17:07;24.80;;;20.73;;
5553;SDS011;2800;49.528;8.666;2023-04-25T04:19:33;25.70;;;22.17;;
5553;SDS011;2800;49.528;8.666;2023-04-25T04:21:58;24.30;;;21.00;;
5553;SDS011;2800;49.528;8.666;2023-04-25T04:24:23;27.40;;;21.53;;
5553;SDS011;2800;49.528;8.666;2023-04-25T04:26:49;29.17;;;21.40;;
5553;SDS011;2800;49.528;8.666;2023-04-25T04:29:15;26.83;;;21.30;;
5553;SDS011;2800;49.528;8.666;2023-04-25T04:31:46;27.33;;;23.47;;
5553;SDS011;2800;49.528;8.666;2023-04-25T04:34:13;26.87;;;23.27;;
5553;SDS011;2800;49.528;8.666;2023-04-25T04:36:38;30.87;;;23.57;;
5553;SDS011;2800;49.528;8.666;2023-04-25T04:39:05;28.87;;;22.40;;
5553;SDS011;2800;49.528;8.666;2023-04-25T04:41:30;28.23;;;22.90;;
5553;SDS011;2800;49.528;8.666;2023-04-25T04:43:56;25.97;;;23.00;;
5553;SDS011;2800;49.528;8.666;2023-04-25T04:46:21;26.47;;;22.10;;
5553;SDS011;2800;49.528;8.666;2023-04-25T04:48:49;31.27;;;21.70;;
5553;SDS011;2800;49.528;8.666;2023-04-25T04:51:14;24.53;;;21.17;;
5553;SDS011;2800;49.528;8.666;2023-04-25T04:53:40;24.07;;;20.10;;
5553;SDS011;2800;49.528;8.666;2023-04-25T04:56:06;23.67;;;20.47;;
5553;SDS011;2800;49.528;8.666;2023-04-25T04:58:31;24.20;;;21.43;;
5553;SDS011;2800;49.528;8.666;2023-04-25T05:00:57;24.73;;;21.40;;
5553;SDS011;2800;49.528;8.666;2023-04-25T05:03:22;26.17;;;21.10;;
5553;SDS011;2800;49.528;8.666;2023-04-25T05:05:48;25.33;;;20.90;;
5553;SDS011;2800;49.528;8.666;2023-04-25T05:08:13;22.33;;;19.93;;
5553;SDS011;2800;49.528;8.666;2023-04-25T05:10:39;25.40;;;20.57;;
5553;SDS011;2800;49.528;8.666;2023-04-25T05:13:04;24.50;;;20.17;;
5553;SDS011;2800;49.528;8.666;2023-04-25T05:15:30;25.70;;;20.70;;
5553;SDS011;2800;49.528;8.666;2023-04-25T05:17:55;26.57;;;22.23;;
5553;SDS011;2800;49.528;8.666;2023-04-25T05:20:21;26.13;;;21.40;;
5553;SDS011;2800;49.528;8.666;2023-04-25T05:22:47;27.30;;;22.97;;
5553;SDS011;2800;49.528;8.666;2023-04-25T05:25:12;26.13;;;21.57;;
5553;SDS011;2800;49.528;8.666;2023-04-25T05:27:38;25.87;;;23.07;;
5553;SDS011;2800;49.528;8.666;2023-04-25T05:30:03;24.43;;;21.10;;
5553;SDS011;2800;49.528;8.666;2023-04-25T05:32:30;29.77;;;23.30;;
5553;SDS011;2800;49.528;8.666;2023-04-25T05:34:55;27.13;;;22.13;;
5553;SDS011;2800;49.528;8.666;2023-04-25T05:37:21;30.40;;;24.40;;
5553;SDS011;2800;49.528;8.666;2023-04-25T05:39:46;26.27;;;21.30;;
5553;SDS011;2800;49.528;8.666;2023-04-25T05:42:12;25.90;;;23.03;;
5553;SDS011;2800;49.528;8.666;2023-04-25T05:44:38;26.20;;;21.90;;
5553;SDS011;2800;49.528;8.666;2023-04-25T05:47:03;25.88;;;21.77;;
5553;SDS011;2800;49.528;8.666;2023-04-25T05:49:29;33.40;;;24.03;;
5553;SDS011;2800;49.528;8.666;2023-04-25T05:51:55;28.85;;;22.25;;
5553;SDS011;2800;49.528;8.666;2023-04-25T05:54:21;27.47;;;22.80;;
5553;SDS011;2800;49.528;8.666;2023-04-25T05:56:46;25.60;;;22.03;;
5553;SDS011;2800;49.528;8.666;2023-04-25T05:59:12;24.90;;;22.17;;
5553;SDS011;2800;49.528;8.666;2023-04-25T06:01:37;27.47;;;23.43;;
5553;SDS011;2800;49.528;8.666;2023-04-25T06:04:03;26.30;;;23.50;;
5553;SDS011;2800;49.528;8.666;2023-04-25T06:06:28;29.00;;;22.47;;
5553;SDS011;2800;49.528;8.666;2023-04-25T06:08:55;26.30;;;22.80;;
5553;SDS011;2800;49.528;8.666;2023-04-25T06:11:20;25.83;;;23.03;;
5553;SDS011;2800;49.528;8.666;2023-04-25T06:13:46;27.87;;;24.87;;
5553;SDS011;2800;49.528;8.666;2023-04-25T06:16:11;34.00;;;23.93;;
5553;SDS011;2800;49.528;8.666;2023-04-25T06:18:37;26.90;;;23.93;;
5553;SDS011;2800;49.528;8.666;2023-04-25T06:21:03;24.43;;;21.80;;
5553;SDS011;2800;49.528;8.666;2023-04-25T06:23:28;25.53;;;22.77;;
5553;SDS011;2800;49.528;8.666;2023-04-25T06:25:54;24.50;;;21.30;;
5553;SDS011;2800;49.528;8.666;2023-04-25T06:28:19;28.03;;;20.07;;
5553;SDS011;2800;49.528;8.666;2023-04-25T06:30:46;22.90;;;17.70;;
5553;SDS011;2800;49.528;8.666;2023-04-25T06:33:12;20.23;;;17.17;;
5553;SDS011;2800;49.528;8.666;2023-04-25T06:35:37;22.50;;;17.83;;
5553;SDS011;2800;49.528;8.666;2023-04-25T06:38:03;23.73;;;18.60;;
5553;SDS011;2800;49.528;8.666;2023-04-25T06:40:29;24.63;;;17.33;;
5553;SDS011;2800;49.528;8.666;2023-04-25T06:42:54;21.37;;;14.70;;
5553;SDS011;2800;49.528;8.666;2023-04-25T06:45:20;29.27;;;14.60;;
5553;SDS011;2800;49.528;8.666;2023-04-25T06:47:45;21.60;;;13.87;;
5553;SDS011;2800;49.528;8.666;2023-04-25T06:50:11;20.60;;;13.57;;
5553;SDS011;2800;49.528;8.666;2023-04-25T06:52:36;19.63;;;13.60;;
5553;SDS011;2800;49.528;8.666;2023-04-25T06:55:02;20.83;;;13.80;;
5553;SDS011;2800;49.528;8.666;2023-04-25T06:57:28;21.30;;;13.43;;
5553;SDS011;2800;49.528;8.666;2023-04-25T06:59:54;18.00;;;12.20;;
5553;SDS011;2800;49.528;8.666;2023-04-25T07:02:20;19.87;;;12.73;;
5553;SDS011;2800;49.528;8.666;2023-04-25T07:04:46;20.00;;;13.30;;
5553;SDS011;2800;49.528;8.666;2023-04-25T07:07:12;19.23;;;12.77;;
5553;SDS011;2800;49.528;8.666;2023-04-25T07:09:37;19.00;;;10.80;;
5553;SDS011;2800;49.528;8.666;2023-04-25T07:12:03;15.73;;;10.00;;
5553;SDS011;2800;49.528;8.666;2023-04-25T07:14:29;18.50;;;11.07;;
5553;SDS011;2800;49.528;8.666;2023-04-25T07:16:54;14.80;;;9.07;;
5553;SDS011;2800;49.528;8.666;2023-04-25T07:19:21;15.00;;;9.27;;
5553;SDS011;2800;49.528;8.666;2023-04-25T07:21:48;18.43;;;9.70;;
5553;SDS011;2800;49.528;8.666;2023-04-25T07:24:14;14.20;;;9.30;;
5553;SDS011;2800;49.528;8.666;2023-04-25T07:26:40;20.80;;;9.40;;
5553;SDS011;2800;49.528;8.666;2023-04-25T07:29:05;14.77;;;8.37;;
5553;SDS011;2800;49.528;8.666;2023-04-25T07:31:31;17.00;;;8.57;;
5553;SDS011;2800;49.528;8.666;2023-04-25T07:33:56;17.67;;;9.57;;
5553;SDS011;2800;49.528;8.666;2023-04-25T07:36:22;18.33;;;11.13;;
5553;SDS011;2800;49.528;8.666;2023-04-25T07:38:47;17.43;;;10.77;;
5553;SDS011;2800;49.528;8.666;2023-04-25T07:41:13;19.37;;;10.97;;
5553;SDS011;2800;49.528;8.666;2023-04-25T07:43:38;17.30;;;11.97;;
5553;SDS011;2800;49.528;8.666;2023-04-25T07:46:04;24.47;;;13.70;;
5553;SDS011;2800;49.528;8.666;2023-04-25T07:48:29;18.33;;;12.30;;
5553;SDS011;2800;49.528;8.666;2023-04-25T07:50:55;22.03;;;13.23;;
5553;SDS011;2800;49.528;8.666;2023-04-25T07:53:21;24.67;;;14.03;;
5553;SDS011;2800;49.528;8.666;2023-04-25T07:55:46;21.43;;;12.60;;
5553;SDS011;2800;49.528;8.666;2023-04-25T07:58:12;22.90;;;14.27;;
5553;SDS011;2800;49.528;8.666;2023-04-25T08:00:38;30.93;;;15.67;;
5553;SDS011;2800;49.528;8.666;2023-04-25T08:03:04;24.97;;;14.70;;
5553;SDS011;2800;49.528;8.666;2023-04-25T08:05:29;24.40;;;13.53;;
5553;SDS011;2800;49.528;8.666;2023-04-25T08:07:55;19.73;;;13.27;;
5553;SDS011;2800;49.528;8.666;2023-04-25T08:10:21;22.13;;;12.70;;
5553;SDS011;2800;49.528;8.666;2023-04-25T08:12:48;24.50;;;13.87;;
5553;SDS011;2800;49.528;8.666;2023-04-25T08:15:13;24.87;;;12.40;;
5553;SDS011;2800;49.528;8.666;2023-04-25T08:17:39;21.90;;;12.93;;
5553;SDS011;2800;49.528;8.666;2023-04-25T08:20:05;18.03;;;12.30;;
5553;SDS011;2800;49.528;8.666;2023-04-25T08:22:31;23.73;;;11.10;;
5553;SDS011;2800;49.528;8.666;2023-04-25T08:24:57;18.73;;;10.97;;
5553;SDS011;2800;49.528;8.666;2023-04-25T08:27:23;20.67;;;9.80;;
5553;SDS011;2800;49.528;8.666;2023-04-25T08:29:48;16.73;;;8.00;;
5553;SDS011;2800;49.528;8.666;2023-04-25T08:32:15;15.60;;;8.20;;
5553;SDS011;2800;49.528;8.666;2023-04-25T08:34:40;13.27;;;7.37;;
5553;SDS011;2800;49.528;8.666;2023-04-25T08:37:07;18.13;;;7.87;;
5553;SDS011;2800;49.528;8.666;2023-04-25T08:39:34;14.50;;;8.47;;
5553;SDS011;2800;49.528;8.666;2023-04-25T08:42:00;16.95;;;8.20;;
5553;SDS011;2800;49.528;8.666;2023-04-25T08:44:29;18.77;;;9.03;;
5553;SDS011;2800;49.528;8.666;2023-04-25T08:46:55;16.30;;;8.07;;
5553;SDS011;2800;49.528;8.666;2023-04-25T08:49:22;18.00;;;10.13;;
5553;SDS011;2800;49.528;8.666;2023-04-25T08:51:48;16.30;;;10.40;;
5553;SDS011;2800;49.528;8.666;2023-04-25T08:54:16;19.17;;;11.80;;
5553;SDS011;2800;49.528;8.666;2023-04-25T08:56:45;22.20;;;9.40;;
5553;SDS011;2800;49.528;8.666;2023-04-25T08:59:12;12.07;;;6.90;;
5553;SDS011;2800;49.528;8.666;2023-04-25T09:01:38;12.50;;;6.87;;
5553;SDS011;2800;49.528;8.666;2023-04-25T09:04:04;15.50;;;6.83;;
5553;SDS011;2800;49.528;8.666;2023-04-25T09:06:30;17.33;;;7.73;;
5553;SDS011;2800;49.528;8.666;2023-04-25T09:09:07;13.10;;;6.73;;
5553;SDS011;2800;49.528;8.666;2023-04-25T09:11:36;13.60;;;6.80;;
5553;SDS011;2800;49.528;8.666;2023-04-25T09:14:14;14.40;;;6.70;;
5553;SDS011;2800;49.528;8.666;2023-04-25T09:19:23;15.50;;;7.27;;
5553;SDS011;2800;49.528;8.666;2023-04-25T09:21:55;15.80;;;6.63;;
5553;SDS011;2800;49.528;8.666;2023-04-25T09:27:11;13.33;;;6.40;;
5553;SDS011;2800;49.528;8.666;2023-04-25T09:29:42;14.70;;;7.00;;
5553;SDS011;2800;49.528;8.666;2023-04-25T09:32:15;13.77;;;7.23;;
5553;SDS011;2800;49.528;8.666;2023-04-25T09:34:44;15.20;;;7.50;;
5553;SDS011;2800;49.528;8.666;2023-04-25T09:37:16;15.20;;;7.27;;
5553;SDS011;2800;49.528;8.666;2023-04-25T09:39:47;14.50;;;6.27;;
5553;SDS011;2800;49.528;8.666;2023-04-25T09:42:14;22.53;;;9.47;;
5553;SDS011;2800;49.528;8.666;2023-04-25T09:44:42;17.50;;;9.00;;
5553;SDS011;2800;49.528;8.666;2023-04-25T09:47:09;13.37;;;7.10;;
5553;SDS011;2800;49.528;8.666;2023-04-25T09:49:38;13.13;;;6.60;;
5553;SDS011;2800;49.528;8.666;2023-04-25T09:52:06;13.67;;;6.83;;
5553;SDS011;2800;49.528;8.666;2023-04-25T09:54:31;18.90;;;6.73;;
5553;SDS011;2800;49.528;8.666;2023-04-25T09:56:57;11.83;;;6.10;;
5553;SDS011;2800;49.528;8.666;2023-04-25T09:59:33;13.23;;;6.37;;
5553;SDS011;2800;49.528;8.666;2023-04-25T10:02:01;11.17;;;6.40;;
5553;SDS011;2800;49.528;8.666;2023-04-25T10:04:27;16.30;;;6.90;;
5553;SDS011;2800;49.528;8.666;2023-04-25T10:06:55;18.50;;;7.13;;
5553;SDS011;2800;49.528;8.666;2023-04-25T10:09:23;15.43;;;7.67;;
5553;SDS011;2800;49.528;8.666;2023-04-25T10:11:51;23.97;;;6.93;;
5553;SDS011;2800;49.528;8.666;2023-04-25T10:14:18;19.57;;;6.97;;
5553;SDS011;2800;49.528;8.666;2023-04-25T10:16:43;14.57;;;6.87;;
5553;SDS011;2800;49.528;8.666;2023-04-25T10:19:10;11.83;;;6.30;;
5553;SDS011;2800;49.528;8.666;2023-04-25T10:21:38;11.17;;;6.10;;
5553;SDS011;2800;49.528;8.666;2023-04-25T10:24:16;12.80;;;6.57;;
5553;SDS011;2800;49.528;8.666;2023-04-25T10:26:43;14.80;;;6.33;;
5553;SDS011;2800;49.528;8.666;2023-04-25T10:29:08;13.53;;;6.40;;
5553;SDS011;2800;49.528;8.666;2023-04-25T10:31:37;14.00;;;6.93;;
5553;SDS011;2800;49.528;8.666;2023-04-25T10:34:10;13.90;;;6.80;;
5553;SDS011;2800;49.528;8.666;2023-04-25T10:36:36;14.03;;;6.57;;
5553;SDS011;2800;49.528;8.666;2023-04-25T10:39:03;20.20;;;7.30;;
5553;SDS011;2800;49.528;8.666;2023-04-25T10:41:45;11.67;;;6.30;;
5553;SDS011;2800;49.528;8.666;2023-04-25T10:44:12;12.07;;;6.30;;
5553;SDS011;2800;49.528;8.666;2023-04-25T10:46:39;11.67;;;6.20;;
5553;SDS011;2800;49.528;8.666;2023-04-25T10:49:05;12.70;;;6.50;;
5553;SDS011;2800;49.528;8.666;2023-04-25T10:51:34;21.20;;;7.23;;
5553;SDS011;2800;49.528;8.666;2023-04-25T10:54:02;15.20;;;6.40;;
5553;SDS011;2800;49.528;8.666;2023-04-25T10:56:33;14.80;;;5.60;;
5553;SDS011;2800;49.528;8.666;2023-04-25T11:01:35;8.90;;;4.70;;
5553;SDS011;2800;49.528;8.666;2023-04-25T11:04:30;9.43;;;5.30;;
5553;SDS011;2800;49.528;8.666;2023-04-25T11:09:33;11.30;;;5.20;;
5553;SDS011;2800;49.528;8.666;2023-04-25T11:12:00;10.73;;;5.47;;
5553;SDS011;2800;49.528;8.666;2023-04-25T11:14:26;10.27;;;5.10;;
5553;SDS011;2800;49.528;8.666;2023-04-25T11:16:52;10.60;;;4.70;;
5553;SDS011;2800;49.528;8.666;2023-04-25T11:19:20;9.93;;;4.10;;
5553;SDS011;2800;49.528;8.666;2023-04-25T11:21:46;9.00;;;3.90;;
5553;SDS011;2800;49.528;8.666;2023-04-25T11:24:11;63.80;;;45.50;;
5553;SDS011;2800;49.528;8.666;2023-04-25T11:26:37;12.63;;;6.60;;
5553;SDS011;2800;49.528;8.666;2023-04-25T11:29:03;43.53;;;30.60;;
5553;SDS011;2800;49.528;8.666;2023-04-25T11:31:28;16.60;;;10.03;;
5553;SDS011;2800;49.528;8.666;2023-04-25T11:33:56;16.00;;;11.03;;
5553;SDS011;2800;49.528;8.666;2023-04-25T11:36:23;12.90;;;8.00;;
5553;SDS011;2800;49.528;8.666;2023-04-25T11:38:50;10.77;;;6.83;;
5553;SDS011;2800;49.528;8.666;2023-04-25T11:41:16;11.70;;;8.40;;
5553;SDS011;2800;49.528;8.666;2023-04-25T11:43:42;13.23;;;8.33;;
5553;SDS011;2800;49.528;8.666;2023-04-25T11:46:08;14.87;;;8.87;;
5553;SDS011;2800;49.528;8.666;2023-04-25T11:48:41;12.67;;;8.77;;
5553;SDS011;2800;49.528;8.666;2023-04-25T11:51:07;17.97;;;9.33;;
5553;SDS011;2800;49.528;8.666;2023-04-25T11:53:33;11.13;;;5.80;;
5553;SDS011;2800;49.528;8.666;2023-04-25T11:55:58;7.83;;;3.90;;
5553;SDS011;2800;49.528;8.666;2023-04-25T11:58:25;9.33;;;5.00;;
5553;SDS011;2800;49.528;8.666;2023-04-25T12:00:51;8.70;;;5.07;;
5553;SDS011;2800;49.528;8.666;2023-04-25T12:03:17;13.97;;;8.40;;
5553;SDS011;2800;49.528;8.666;2023-04-25T12:05:44;19.40;;;11.43;;
5553;SDS011;2800;49.528;8.666;2023-04-25T12:08:13;13.10;;;8.50;;
5553;SDS011;2800;49.528;8.666;2023-04-25T12:10:41;11.90;;;5.90;;
5553;SDS011;2800;49.528;8.666;2023-04-25T12:13:24;12.30;;;5.07;;
5553;SDS011;2800;49.528;8.666;2023-04-25T12:15:51;9.33;;;4.33;;
5553;SDS011;2800;49.528;8.666;2023-04-25T12:18:20;12.00;;;4.60;;
5553;SDS011;2800;49.528;8.666;2023-04-25T12:20:48;15.50;;;4.97;;
5553;SDS011;2800;49.528;8.666;2023-04-25T12:23:13;10.13;;;5.07;;
5553;SDS011;2800;49.528;8.666;2023-04-25T12:25:40;8.27;;;3.93;;
5553;SDS011;2800;49.528;8.666;2023-04-25T12:28:10;9.67;;;4.47;;
5553;SDS011;2800;49.528;8.666;2023-04-25T12:30:53;8.10;;;4.60;;
5553;SDS011;2800;49.528;8.666;2023-04-25T12:33:29;8.83;;;4.93;;
5553;SDS011;2800;49.528;8.666;2023-04-25T12:35:56;9.93;;;6.27;;
5553;SDS011;2800;49.528;8.666;2023-04-25T12:40:52;11.93;;;5.20;;
5553;SDS011;2800;49.528;8.666;2023-04-25T12:43:19;9.97;;;4.90;;
5553;SDS011;2800;49.528;8.666;2023-04-25T12:45:47;14.50;;;6.00;;
5553;SDS011;2800;49.528;8.666;2023-04-25T12:48:13;10.67;;;4.90;;
5553;SDS011;2800;49.528;8.666;2023-04-25T12:50:38;8.67;;;5.20;;
5553;SDS011;2800;49.528;8.666;2023-04-25T12:53:04;9.47;;;5.20;;
5553;SDS011;2800;49.528;8.666;2023-04-25T12:55:30;9.87;;;4.80;;
5553;SDS011;2800;49.528;8.666;2023-04-25T12:57:55;12.97;;;5.90;;
5553;SDS011;2800;49.528;8.666;2023-04-25T13:00:21;18.67;;;5.50;;
5553;SDS011;2800;49.528;8.666;2023-04-25T13:02:46;13.07;;;4.80;;
5553;SDS011;2800;49.528;8.666;2023-04-25T13:05:12;8.13;;;4.70;;
5553;SDS011;2800;49.528;8.666;2023-04-25T13:07:38;16.73;;;5.47;;
5553;SDS011;2800;49.528;8.666;2023-04-25T13:10:04;9.40;;;4.53;;
5553;SDS011;2800;49.528;8.666;2023-04-25T13:12:30;10.77;;;4.67;;
5553;SDS011;2800;49.528;8.666;2023-04-25T13:14:56;10.90;;;4.90;;
5553;SDS011;2800;49.528;8.666;2023-04-25T13:17:22;8.93;;;5.17;;
5553;SDS011;2800;49.528;8.666;2023-04-25T13:19:47;11.47;;;5.10;;
5553;SDS011;2800;49.528;8.666;2023-04-25T13:22:13;12.90;;;5.40;;
5553;SDS011;2800;49.528;8.666;2023-04-25T13:24:40;15.53;;;5.30;;
5553;SDS011;2800;49.528;8.666;2023-04-25T13:27:05;10.57;;;5.13;;
5553;SDS011;2800;49.528;8.666;2023-04-25T13:29:31;9.90;;;5.10;;
5553;SDS011;2800;49.528;8.666;2023-04-25T13:31:59;13.40;;;5.70;;
5553;SDS011;2800;49.528;8.666;2023-04-25T13:34:25;9.63;;;5.97;;
5553;SDS011;2800;49.528;8.666;2023-04-25T13:36:51;11.10;;;6.03;;
5553;SDS011;2800;49.528;8.666;2023-04-25T13:39:17;8.90;;;5.03;;
5553;SDS011;2800;49.528;8.666;2023-04-25T13:41:42;9.47;;;5.37;;
5553;SDS011;2800;49.528;8.666;2023-04-25T13:44:08;8.77;;;4.93;;
5553;SDS011;2800;49.528;8.666;2023-04-25T13:46:33;9.90;;;5.63;;
5553;SDS011;2800;49.528;8.666;2023-04-25T13:48:59;11.43;;;6.57;;
5553;SDS011;2800;49.528;8.666;2023-04-25T13:51:26;15.53;;;6.70;;
5553;SDS011;2800;49.528;8.666;2023-04-25T13:53:51;21.67;;;12.20;;
5553;SDS011;2800;49.528;8.666;2023-04-25T13:56:17;17.57;;;8.97;;
5553;SDS011;2800;49.528;8.666;2023-04-25T13:58:44;18.80;;;10.80;;
5553;SDS011;2800;49.528;8.666;2023-04-25T14:04:32;18.00;;;10.00;;
5553;SDS011;2800;49.528;8.666;2023-04-25T14:06:57;22.43;;;10.60;;
5553;SDS011;2800;49.528;8.666;2023-04-25T14:09:23;19.33;;;9.87;;
5553;SDS011;2800;49.528;8.666;2023-04-25T14:11:53;32.47;;;21.73;;
5553;SDS011;2800;49.528;8.666;2023-04-25T14:14:19;28.70;;;18.03;;
5553;SDS011;2800;49.528;8.666;2023-04-25T14:16:46;35.00;;;22.67;;
5553;SDS011;2800;49.528;8.666;2023-04-25T14:19:16;63.67;;;43.80;;
5553;SDS011;2800;49.528;8.666;2023-04-25T14:21:42;46.20;;;32.57;;
5553;SDS011;2800;49.528;8.666;2023-04-25T14:24:08;17.77;;;9.43;;
5553;SDS011;2800;49.528;8.666;2023-04-25T14:26:35;17.57;;;10.20;;
5553;SDS011;2800;49.528;8.666;2023-04-25T14:29:01;24.40;;;12.60;;
5553;SDS011;2800;49.528;8.666;2023-04-25T14:31:28;39.90;;;23.10;;
5553;SDS011;2800;49.528;8.666;2023-04-25T14:33:53;21.53;;;9.67;;
5553;SDS011;2800;49.528;8.666;2023-04-25T14:36:19;25.07;;;16.40;;
5553;SDS011;2800;49.528;8.666;2023-04-25T14:38:45;17.57;;;10.20;;
5553;SDS011;2800;49.528;8.666;2023-04-25T14:41:10;18.80;;;11.20;;
5553;SDS011;2800;49.528;8.666;2023-04-25T14:43:36;24.77;;;15.40;;
5553;SDS011;2800;49.528;8.666;2023-04-25T14:46:02;24.93;;;14.10;;
5553;SDS011;2800;49.528;8.666;2023-04-25T14:48:28;12.53;;;5.87;;
5553;SDS011;2800;49.528;8.666;2023-04-25T14:50:54;13.63;;;6.20;;
5553;SDS011;2800;49.528;8.666;2023-04-25T14:53:21;14.53;;;5.53;;
5553;SDS011;2800;49.528;8.666;2023-04-25T14:55:47;10.87;;;5.80;;
5553;SDS011;2800;49.528;8.666;2023-04-25T14:58:13;13.47;;;6.33;;
5553;SDS011;2800;49.528;8.666;2023-04-25T15:00:39;12.83;;;6.50;;
5553;SDS011;2800;49.528;8.666;2023-04-25T15:03:05;10.77;;;5.40;;
5553;SDS011;2800;49.528;8.666;2023-04-25T15:05:32;14.20;;;6.57;;
5553;SDS011;2800;49.528;8.666;2023-04-25T15:07:58;15.13;;;6.37;;